Sisimiut, Greenland
Current Conditions -  °F | °C
As of 6:50 AM on Friday 24 Oct 2014 (Local Time) from BGSF Reporting Station
Overcast Overcast  
Wind Chill: 17°   Ceiling: 5000
Heat Index: 23°   Visibility: 6mi
Dew Point: 16°   Wind: 5mph
Humidity: 74%   Direction: 290°WNW
Pressure: 29.38"   Gusts: NA
Location:  66.92°N, 53.66°W
Report Text: BGSF 240850Z AUTO 29004KT 250V320 9999NDV FEW026/// BKN050/// BKN085/// OVC120/// M05/M09 Q0995
Loading
Personal Weather Stations






























Interactive Weather Map
Tropical Storm Tracking
New forecast layout! Learn more

10-Day Weather Forecast

Advertisements
Track Severe Weather on mobile